Time;durP1;ratioP1;P1;durP2;ratioP2;P2;SDS_P1;SDS_P2;PMS_P1;PMS_P2;Temp;Humidity;BMP_temperature;BMP_pressure;BME280_temperature;BME280_humidity;BME280_pressure;Samples;Min_cycle;Max_cycle;Signal;HPM_P1;HPM_P2
2022/08/09 00:01:47;;;;;;;3.80;3.60;;;;;;;18.39;99.69;100914.65;1711763;82;21576;-74
2022/08/09 00:04:16;;;;;;;4.40;4.15;;;;;;;18.39;99.71;100920.05;1682472;84;20942;-73
2022/08/09 00:06:43;;;;;;;3.75;3.55;;;;;;;18.35;99.79;100913.45;1708580;83;21021;-74
2022/08/09 00:09:10;;;;;;;3.47;3.27;;;;;;;18.31;100.00;100909.53;1731169;82;21029;-73
2022/08/09 00:11:38;;;;;;;3.75;3.65;;;;;;;18.29;100.00;100916.00;1693551;83;21038;-75
2022/08/09 00:14:06;;;;;;;3.70;3.50;;;;;;;18.31;100.00;100914.94;1639220;86;21053;-76
2022/08/09 00:16:33;;;;;;;3.80;3.52;;;;;;;18.33;100.00;100910.98;1641407;86;21018;-76
2022/08/09 00:18:59;;;;;;;3.77;3.47;;;;;;;18.33;100.00;100913.68;1654821;86;21125;-76
2022/08/09 00:21:26;;;;;;;4.00;3.70;;;;;;;18.29;100.00;100911.14;1654653;86;21046;-75
2022/08/09 00:23:52;;;;;;;4.30;3.45;;;;;;;18.28;100.00;100911.64;1654594;85;21494;-75
2022/08/09 00:26:18;;;;;;;;;;;;;;;18.26;100.00;100906.18;1647094;87;21014;-76
2022/08/09 00:28:44;;;;;;;3.12;2.90;;;;;;;18.24;100.00;100909.63;1656877;85;20108;-74
2022/08/09 00:31:10;;;;;;;3.50;3.30;;;;;;;18.20;100.00;100911.14;1656504;85;21051;-76
2022/08/09 00:33:36;;;;;;;3.08;2.87;;;;;;;18.25;100.00;100909.91;1650731;86;21006;-76
2022/08/09 00:36:04;;;;;;;3.25;3.05;;;;;;;18.29;100.00;100907.91;1656392;85;21037;-75
2022/08/09 00:38:30;;;;;;;2.83;2.62;;;;;;;18.31;100.00;100905.48;1656012;85;21033;-75
2022/08/09 00:40:56;;;;;;;3.08;2.98;;;;;;;18.28;100.00;100904.89;1661988;85;21017;-74
2022/08/09 00:43:23;;;;;;;5.90;3.02;;;;;;;18.27;100.00;100908.66;1648595;85;21499;-75
2022/08/09 00:45:49;;;;;;;3.25;3.08;;;;;;;18.25;100.00;100907.22;1657842;85;21005;-75
2022/08/09 00:48:15;;;;;;;;;;;;;;;18.24;100.00;100910.98;1656335;85;21521;-75
2022/08/09 00:50:41;;;;;;;3.10;3.00;;;;;;;18.21;100.00;100914.11;1655762;85;20141;-75
2022/08/09 00:53:09;;;;;;;4.05;3.85;;;;;;;18.12;100.00;100908.72;1654949;85;21062;-77
2022/08/09 00:55:35;;;;;;;2.98;2.85;;;;;;;18.12;100.00;100907.37;1680275;84;21063;-75
2022/08/09 00:58:02;;;;;;;2.87;2.70;;;;;;;18.11;100.00;100907.90;1662407;85;21049;-74
2022/08/09 01:00:28;;;;;;;3.20;3.00;;;;;;;18.09;100.00;100912.16;1665700;84;21357;-74
2022/08/09 01:03:06;;;;;;;2.98;2.83;;;;;;;18.07;100.00;100910.22;1685392;84;21038;-75
2022/08/09 01:06:10;;;;;;;2.55;2.42;;;;;;;18.06;100.00;100913.13;1670132;84;21006;-74
2022/08/09 01:08:54;;;;;;;3.45;3.27;;;;;;;18.05;100.00;100902.88;1671713;84;21482;-74
2022/08/09 01:11:58;;;;;;;3.00;2.90;;;;;;;18.01;100.00;100903.03;1671849;84;21050;-73
2022/08/09 01:14:32;;;;;;;3.20;3.10;;;;;;;17.99;100.00;100904.28;1662942;85;21006;-73
2022/08/09 01:17:07;;;;;;;3.15;3.05;;;;;;;17.94;100.00;100906.31;1663141;85;21106;-74
2022/08/09 01:19:45;;;;;;;3.45;3.25;;;;;;;17.93;100.00;100915.44;1655917;85;20962;-74
2022/08/09 01:22:43;;;;;;;3.40;3.15;;;;;;;17.95;100.00;100921.97;1655093;85;21051;-73
2022/08/09 01:25:40;;;;;;;2.85;2.75;;;;;;;17.95;100.00;100920.61;1589515;87;20998;-74
2022/08/09 01:28:08;;;;;;;3.10;2.90;;;;;;;17.95;100.00;100925.51;1631518;87;21042;-74
2022/08/09 01:30:37;;;;;;;3.20;3.00;;;;;;;17.96;100.00;100915.54;1627258;86;21044;-73
2022/08/09 01:33:07;;;;;;;2.62;2.52;;;;;;;17.96;100.00;100917.70;1626379;86;22208;-72
2022/08/09 01:36:13;;;;;;;2.83;2.70;;;;;;;17.94;100.00;100917.10;1656066;85;21125;-73
2022/08/09 01:38:42;;;;;;;4.78;3.05;;;;;;;17.90;100.00;100915.37;1657486;85;21011;-74
2022/08/09 01:41:23;;;;;;;2.35;2.30;;;;;;;17.84;100.00;100916.27;1658820;85;21065;-74
2022/08/09 01:43:53;;;;;;;2.45;2.25;;;;;;;17.78;100.00;100911.74;1663043;85;21061;-73
2022/08/09 01:46:24;;;;;;;3.02;2.83;;;;;;;17.75;100.00;100911.36;1661608;85;21008;-74
2022/08/09 01:48:54;;;;;;;3.15;2.77;;;;;;;17.71;100.00;100905.05;1647144;85;21001;-74
2022/08/09 01:51:21;;;;;;;2.80;2.70;;;;;;;17.70;100.00;100902.57;1644757;85;21040;-76
2022/08/09 01:53:53;;;;;;;3.02;2.72;;;;;;;17.67;100.00;100910.59;1660375;85;20990;-75
2022/08/09 01:56:21;;;;;;;2.52;2.37;;;;;;;17.67;100.00;100913.28;1671218;84;21080;-75
2022/08/09 01:58:50;;;;;;;3.05;2.85;;;;;;;17.68;100.00;100912.22;1665368;85;21034;-76
2022/08/09 02:01:18;;;;;;;2.72;2.58;;;;;;;17.68;100.00;100909.53;1656378;85;21027;-75
2022/08/09 02:03:46;;;;;;;2.62;2.52;;;;;;;17.67;100.00;100915.98;1655245;85;21064;-75
2022/08/09 02:06:15;;;;;;;3.58;3.33;;;;;;;17.70;100.00;100916.87;1655786;85;21009;-76
2022/08/09 02:08:44;;;;;;;2.33;2.22;;;;;;;17.67;100.00;100912.47;1656445;85;21623;-74
2022/08/09 02:11:12;;;;;;;2.15;2.05;;;;;;;17.77;100.00;100916.82;1654461;84;21015;-74
2022/08/09 02:13:40;;;;;;;2.62;2.52;;;;;;;17.85;100.00;100919.78;1657624;85;21088;-76
2022/08/09 02:16:10;;;;;;;2.52;2.33;;;;;;;17.88;100.00;100922.86;1655885;85;21572;-76
2022/08/09 02:18:37;;;;;;;4.25;2.00;;;;;;;17.85;100.00;100917.09;1655349;85;21221;-75
2022/08/09 02:21:14;;;;;;;2.65;2.55;;;;;;;17.82;100.00;100915.64;1655869;85;20974;-75
2022/08/09 02:23:52;;;;;;;3.52;2.12;;;;;;;17.76;100.00;100914.34;1631898;87;21153;-75
2022/08/09 02:26:21;;;;;;;2.70;2.55;;;;;;;17.69;100.00;100917.11;1631463;87;21010;-76
2022/08/09 02:28:51;;;;;;;2.45;2.35;;;;;;;17.64;100.00;100915.06;1626565;87;20984;-74
2022/08/09 02:31:25;;;;;;;4.08;2.00;;;;;;;17.59;100.00;100915.42;1628304;87;21002;-75
2022/08/09 02:33:56;;;;;;;2.10;2.00;;;;;;;17.50;100.00;100916.24;1635861;87;21593;-75
2022/08/09 02:36:33;;;;;;;2.12;2.12;;;;;;;17.42;100.00;100916.50;1655889;85;21013;-75
2022/08/09 02:39:05;;;;;;;2.00;1.90;;;;;;;17.40;100.00;100920.75;1645030;85;21158;-77
2022/08/09 02:41:52;;;;;;;2.17;1.85;;;;;;;17.36;100.00;100920.08;1655235;86;21560;-77
2022/08/09 02:44:23;;;;;;;5.15;2.62;;;;;;;17.30;100.00;100925.28;1648843;85;21073;-75
2022/08/09 02:46:53;;;;;;;2.10;2.00;;;;;;;17.25;100.00;100923.79;1672284;84;21027;-75
2022/08/09 02:49:21;;;;;;;2.85;2.72;;;;;;;17.21;100.00;100923.90;1653259;84;21043;-74
2022/08/09 02:51:53;;;;;;;2.47;2.27;;;;;;;17.23;100.00;100925.85;1675457;84;21085;-75
2022/08/09 02:54:20;;;;;;;1.90;1.80;;;;;;;17.26;100.00;100932.69;1680433;85;21002;-75
2022/08/09 02:56:50;;;;;;;2.20;1.98;;;;;;;17.31;100.00;100935.56;1680280;84;20983;-75
2022/08/09 02:59:18;;;;;;;1.67;1.67;;;;;;;17.39;100.00;100938.51;1680936;84;21031;-75
2022/08/09 03:01:46;;;;;;;4.10;2.67;;;;;;;17.46;100.00;100940.61;1680416;84;21041;-76
2022/08/09 03:04:14;;;;;;;2.65;1.62;;;;;;;17.49;100.00;100934.80;1681073;85;21043;-74
2022/08/09 03:06:43;;;;;;;2.95;2.08;;;;;;;17.55;100.00;100941.17;1680490;84;21061;-76
2022/08/09 03:09:12;;;;;;;2.98;1.70;;;;;;;17.66;100.00;100936.41;1661269;85;21407;-76
2022/08/09 03:11:39;;;;;;;2.22;2.12;;;;;;;17.75;100.00;100927.53;1664233;83;21691;-75
2022/08/09 03:14:07;;;;;;;1.20;1.20;;;;;;;17.92;100.00;100930.52;1654783;85;21065;-74
2022/08/09 03:16:36;;;;;;;1.12;1.12;;;;;;;18.04;99.64;100924.14;1644896;85;21045;-75
2022/08/09 03:19:02;;;;;;;1.72;1.70;;;;;;;18.18;99.32;100922.67;1649635;85;21024;-76
2022/08/09 03:21:30;;;;;;;3.17;1.30;;;;;;;18.42;98.66;100927.67;1651950;85;21052;-74
2022/08/09 03:23:56;;;;;;;0.90;0.90;;;;;;;18.70;95.29;100920.36;1663188;85;20976;-74
2022/08/09 03:26:22;;;;;;;;;;;;;;;18.88;93.70;100928.18;1669047;85;21127;-75
2022/08/09 03:28:49;;;;;;;0.85;0.85;;;;;;;19.07;92.85;100929.77;1666975;85;20182;-72
2022/08/09 03:31:17;;;;;;;1.15;1.15;;;;;;;19.15;91.00;100932.66;1652206;85;21036;-73
2022/08/09 03:33:44;;;;;;;2.25;1.45;;;;;;;19.26;90.85;100929.98;1647213;85;21021;-71
2022/08/09 03:36:10;;;;;;;0.80;0.80;;;;;;;19.39;89.36;100922.73;1678631;84;21002;-71
2022/08/09 03:38:38;;;;;;;1.37;0.90;;;;;;;19.44;89.32;100925.57;1620179;87;21071;-74
2022/08/09 03:41:04;;;;;;;1.05;0.57;;;;;;;19.46;88.70;100924.81;1683308;84;21005;-74
2022/08/09 03:43:31;;;;;;;2.02;0.85;;;;;;;19.40;88.02;100930.62;1683317;84;21147;-73
2022/08/09 03:45:59;;;;;;;0.50;0.50;;;;;;;19.31;88.67;100925.76;1671955;84;20998;-75
2022/08/09 03:48:26;;;;;;;4.95;0.70;;;;;;;19.39;88.03;100934.36;1674115;84;21033;-74
2022/08/09 03:50:53;;;;;;;1.00;0.65;;;;;;;19.42;87.78;100942.52;1643483;86;21010;-73
2022/08/09 03:53:21;;;;;;;0.60;0.60;;;;;;;19.39;87.91;100944.36;1642152;86;21001;-74
2022/08/09 03:55:48;;;;;;;1.05;0.90;;;;;;;19.38;88.05;100942.70;1646818;85;21064;-74
2022/08/09 03:58:16;;;;;;;1.98;0.60;;;;;;;19.35;87.89;100939.13;1639736;86;21047;-75
2022/08/09 04:00:45;;;;;;;1.62;0.75;;;;;;;19.44;87.68;100939.09;1668238;84;21083;-74
2022/08/09 04:03:12;;;;;;;0.55;0.55;;;;;;;19.40;87.31;100938.73;1679853;84;21057;-72
2022/08/09 04:05:39;;;;;;;1.40;0.72;;;;;;;19.29;87.86;100935.47;1680047;84;21031;-71
2022/08/09 04:08:06;;;;;;;1.57;0.82;;;;;;;19.51;87.55;100937.08;1667182;84;21248;-74
2022/08/09 04:10:32;;;;;;;;;;;;;;;19.89;85.26;100948.04;1672921;84;21048;-75
2022/08/09 04:13:00;;;;;;;1.27;0.40;;;;;;;20.27;83.47;100939.94;1651433;85;20412;-74
2022/08/09 04:15:26;;;;;;;0.78;0.57;;;;;;;20.37;81.51;100933.38;1649503;85;21181;-75
2022/08/09 04:17:52;;;;;;;;;;;;;;;20.25;81.83;100932.59;1648351;85;21603;-72
2022/08/09 04:20:20;;;;;;;0.98;0.28;;;;;;;19.93;82.48;100937.03;1649886;85;20165;-71
2022/08/09 04:22:46;;;;;;;1.20;0.40;;;;;;;19.61;84.10;100928.41;1654820;84;21066;-73
2022/08/09 04:25:12;;;;;;;;;;;;;;;19.55;84.71;100938.79;1670059;84;21049;-73
2022/08/09 04:27:42;;;;;;;1.50;0.30;;;;;;;19.97;84.10;100939.55;1668186;84;20136;-74
2022/08/09 04:30:14;;;;;;;0.82;0.40;;;;;;;20.48;80.80;100930.89;1667589;84;22217;-72
2022/08/09 04:32:41;;;;;;;0.30;0.30;;;;;;;20.80;79.33;100926.67;1650584;85;21088;-74
2022/08/09 04:35:11;;;;;;;2.10;0.42;;;;;;;21.09;76.81;100927.19;1674541;84;20967;-71
2022/08/09 04:37:37;;;;;;;0.95;0.40;;;;;;;21.19;76.08;100920.58;1617510;87;21089;-77
2022/08/09 04:40:08;;;;;;;0.82;0.30;;;;;;;21.36;75.11;100919.23;1651851;85;21029;-79
2022/08/09 04:42:35;;;;;;;0.78;0.37;;;;;;;21.64;73.89;100922.42;1686312;84;21066;-77
2022/08/09 04:45:03;;;;;;;1.40;0.47;;;;;;;22.00;72.19;100921.63;1670936;84;21540;-74
2022/08/09 04:47:30;;;;;;;1.72;0.35;;;;;;;22.34;70.79;100918.29;1688591;84;21080;-70
2022/08/09 04:49:57;;;;;;;1.45;0.30;;;;;;;22.44;69.33;100921.66;1652533;85;21006;-75
2022/08/09 04:52:26;;;;;;;2.40;0.35;;;;;;;22.27;69.13;100925.80;1682736;84;21530;-79
2022/08/09 04:54:53;;;;;;;0.60;0.30;;;;;;;21.97;70.41;100923.47;1679005;84;21014;-69
2022/08/09 04:57:21;;;;;;;2.10;0.20;;;;;;;21.79;71.43;100920.48;1679768;84;20971;-68
2022/08/09 04:59:47;;;;;;;0.50;0.30;;;;;;;22.02;71.04;100920.83;1680190;84;21530;-66
2022/08/09 05:02:13;;;;;;;1.45;0.42;;;;;;;22.35;69.77;100917.20;1679432;84;21088;-72
2022/08/09 05:04:41;;;;;;;0.20;0.20;;;;;;;22.59;67.79;100916.14;1656247;85;21577;-66
2022/08/09 05:07:07;;;;;;;0.40;0.20;;;;;;;22.53;67.58;100916.62;1681508;84;21541;-76
2022/08/09 05:09:33;;;;;;;0.95;0.25;;;;;;;22.56;67.35;100926.95;1685929;84;21099;-66
2022/08/09 05:12:00;;;;;;;2.47;0.20;;;;;;;22.60;67.39;100930.80;1688219;83;21018;-75
2022/08/09 05:14:30;;;;;;;0.85;0.20;;;;;;;22.73;67.27;100923.64;1652000;85;21184;-69
2022/08/09 05:17:15;;;;;;;0.80;0.20;;;;;;;22.78;66.65;100926.13;1679859;84;21109;-64
2022/08/09 05:19:41;;;;;;;0.53;0.20;;;;;;;22.60;67.52;100918.58;1686232;84;21094;-64
2022/08/09 05:22:10;;;;;;;0.10;0.10;;;;;;;22.43;67.58;100927.34;1687738;84;21057;-68
2022/08/09 05:24:35;;;;;;;0.13;0.10;;;;;;;22.25;68.20;100929.30;1683294;84;22803;-66
2022/08/09 05:27:01;;;;;;;0.40;0.20;;;;;;;22.30;67.54;100931.25;1689117;84;21083;-67
2022/08/09 05:29:27;;;;;;;2.25;0.20;;;;;;;22.14;68.08;100934.28;1691431;84;21148;-65
2022/08/09 05:31:58;;;;;;;0.28;0.20;;;;;;;21.92;70.01;100935.05;1682316;84;21501;-68
2022/08/09 05:34:22;;;;;;;2.25;0.25;;;;;;;21.88;69.96;100935.27;1686665;84;21313;-68
2022/08/09 05:36:48;;;;;;;1.57;0.20;;;;;;;21.91;70.26;100934.78;1685054;84;21100;-68
2022/08/09 05:39:15;;;;;;;0.60;0.33;;;;;;;21.95;70.48;100923.71;1687321;84;21019;-68
2022/08/09 05:41:41;;;;;;;0.47;0.42;;;;;;;22.09;70.07;100926.88;1706819;84;21070;-67
2022/08/09 05:44:07;;;;;;;2.12;0.20;;;;;;;22.27;69.68;100925.80;1685395;84;21080;-68
2022/08/09 05:46:33;;;;;;;1.15;0.20;;;;;;;22.29;68.73;100933.16;1681455;84;21131;-68
2022/08/09 05:49:00;;;;;;;0.68;0.20;;;;;;;22.13;68.93;100935.34;1688718;84;21018;-64
2022/08/09 05:51:27;;;;;;;0.72;0.50;;;;;;;22.07;68.93;100928.20;1687152;84;21333;-68
2022/08/09 05:53:53;;;;;;;1.37;0.55;;;;;;;22.27;68.47;100929.88;1687543;84;21031;-67
2022/08/09 05:56:19;;;;;;;0.53;0.10;;;;;;;22.56;66.83;100937.83;1701104;83;21007;-66
2022/08/09 05:58:47;;;;;;;0.17;0.10;;;;;;;22.95;67.24;100943.15;1697753;83;21099;-67
2022/08/09 06:01:13;;;;;;;1.80;0.10;;;;;;;23.48;64.49;100929.78;1696319;83;20993;-73
2022/08/09 06:03:40;;;;;;;0.57;0.10;;;;;;;23.87;62.07;100936.36;1688479;84;21081;-71
2022/08/09 06:06:06;;;;;;;0.28;0.20;;;;;;;23.88;61.04;100942.91;1690939;84;20969;-69
2022/08/09 06:08:34;;;;;;;0.30;0.10;;;;;;;23.62;61.82;100936.95;1685763;84;21520;-69
2022/08/09 06:11:00;;;;;;;0.13;0.10;;;;;;;23.45;61.94;100934.38;1676368;83;21076;-68
2022/08/09 06:13:27;;;;;;;1.47;0.17;;;;;;;23.29;61.87;100934.80;1692119;83;21032;-69
2022/08/09 06:15:54;;;;;;;0.75;0.10;;;;;;;23.27;62.85;100935.60;1701013;83;21010;-69
2022/08/09 06:18:21;;;;;;;2.30;0.15;;;;;;;23.39;62.78;100938.95;1689744;84;21044;-70
2022/08/09 06:20:47;;;;;;;1.20;0.20;;;;;;;23.53;62.83;100932.55;1671685;84;21118;-69
2022/08/09 06:23:13;;;;;;;0.20;0.20;;;;;;;23.76;62.03;100931.34;1683307;84;21124;-68
2022/08/09 06:25:40;;;;;;;0.17;0.15;;;;;;;24.03;61.19;100931.81;1690798;83;21667;-70
2022/08/09 06:28:07;;;;;;;0.40;0.20;;;;;;;24.36;59.49;100931.17;1708192;82;21040;-70
2022/08/09 06:30:34;;;;;;;1.75;0.10;;;;;;;24.47;56.33;100944.56;1682731;82;21484;-69
2022/08/09 06:33:00;;;;;;;0.40;0.20;;;;;;;24.29;58.00;100932.77;1709417;82;21101;-67
2022/08/09 06:35:26;;;;;;;0.23;0.20;;;;;;;24.15;58.15;100949.30;1685904;84;21605;-67
2022/08/09 06:37:52;;;;;;;0.35;0.17;;;;;;;23.92;58.21;100953.25;1677708;84;21108;-69
2022/08/09 06:40:19;;;;;;;1.52;0.10;;;;;;;23.85;59.13;100942.06;1667311;86;21037;-67
2022/08/09 06:42:45;;;;;;;1.75;0.10;;;;;;;24.03;58.99;100948.15;1674926;84;21508;-69
2022/08/09 06:45:11;;;;;;;1.27;0.37;;;;;;;24.14;58.06;100944.95;1680801;83;21038;-68
2022/08/09 06:47:38;;;;;;;0.90;0.10;;;;;;;24.24;58.29;100944.47;1690289;83;21055;-70
2022/08/09 06:50:06;;;;;;;0.28;0.20;;;;;;;24.27;57.31;100945.28;1681286;84;21076;-69
2022/08/09 06:52:35;;;;;;;0.88;0.10;;;;;;;24.30;56.99;100942.59;1689111;84;21517;-68
2022/08/09 06:55:01;;;;;;;0.45;0.20;;;;;;;24.22;56.83;100934.38;1661785;84;21059;-70
2022/08/09 06:57:27;;;;;;;0.20;0.10;;;;;;;23.96;57.14;100938.87;1699113;83;21082;-67
2022/08/09 06:59:54;;;;;;;1.25;0.10;;;;;;;23.71;58.57;100938.11;1701955;83;21529;-68
2022/08/09 07:02:20;;;;;;;1.75;0.25;;;;;;;23.34;59.68;100938.94;1703311;81;21468;-66
2022/08/09 07:04:46;;;;;;;0.60;0.20;;;;;;;23.09;60.74;100944.94;1701383;83;21028;-68
2022/08/09 07:07:14;;;;;;;0.72;0.10;;;;;;;22.87;59.91;100957.21;1703185;83;21022;-68
2022/08/09 07:09:43;;;;;;;1.40;0.28;;;;;;;22.78;59.70;100960.91;1699363;83;21017;-69
2022/08/09 07:12:11;;;;;;;1.75;0.20;;;;;;;22.84;60.25;100954.98;1695876;82;21023;-69
2022/08/09 07:14:38;;;;;;;0.10;0.10;;;;;;;22.94;60.18;100953.73;1698731;83;21113;-67
2022/08/09 07:17:04;;;;;;;0.72;0.20;;;;;;;23.08;60.15;100955.55;1700954;83;21042;-68
2022/08/09 07:19:30;;;;;;;0.37;0.10;;;;;;;23.16;58.69;100955.08;1696922;83;21053;-68
2022/08/09 07:21:57;;;;;;;0.13;0.10;;;;;;;23.20;56.28;100960.82;1705333;83;21127;-69
2022/08/09 07:24:25;;;;;;;1.05;0.10;;;;;;;23.20;57.69;100957.55;1700530;83;21028;-68
2022/08/09 07:26:51;;;;;;;0.85;0.47;;;;;;;23.20;57.96;100956.74;1700593;83;21089;-66
2022/08/09 07:29:18;;;;;;;1.17;0.20;;;;;;;23.27;56.22;100960.08;1703017;83;21009;-70
2022/08/09 07:31:44;;;;;;;0.85;0.10;;;;;;;23.28;55.81;100958.47;1701559;83;21041;-63
2022/08/09 07:34:10;;;;;;;0.60;0.10;;;;;;;23.29;56.60;100953.84;1697557;80;21566;-62
2022/08/09 07:36:36;;;;;;;3.05;0.10;;;;;;;23.33;57.18;100954.41;1694150;83;20989;-61
2022/08/09 07:39:04;;;;;;;0.90;0.10;;;;;;;23.38;56.89;100948.20;1657042;85;21118;-68
2022/08/09 07:41:30;;;;;;;1.07;0.70;;;;;;;23.30;56.94;100949.51;1634046;86;22259;-63
2022/08/09 07:43:56;;;;;;;0.62;0.10;;;;;;;23.16;57.52;100943.38;1688634;83;21005;-70
2022/08/09 07:46:23;;;;;;;0.35;0.20;;;;;;;23.06;58.32;100935.41;1672265;84;21042;-67
2022/08/09 07:48:49;;;;;;;1.07;0.10;;;;;;;23.08;57.79;100940.59;1690743;84;20966;-67
2022/08/09 07:51:16;;;;;;;2.02;0.23;;;;;;;23.05;54.97;100940.55;1684085;84;21669;-58
2022/08/09 07:53:42;;;;;;;0.40;0.20;;;;;;;22.99;51.90;100951.07;1682794;84;21010;-61
2022/08/09 07:56:08;;;;;;;1.65;0.10;;;;;;;22.90;51.96;100952.60;1686359;84;21124;-62
2022/08/09 07:58:35;;;;;;;0.85;0.00;;;;;;;22.90;48.43;100959.39;1675977;84;21021;-62
2022/08/09 08:01:02;;;;;;;0.70;0.00;;;;;;;22.96;48.44;100961.09;1648596;85;21107;-62
2022/08/09 08:03:29;;;;;;;1.45;0.20;;;;;;;22.98;48.06;100948.60;1683025;84;21113;-63
2022/08/09 08:05:55;;;;;;;1.00;0.10;;;;;;;22.97;47.94;100955.13;1688805;84;21081;-62
2022/08/09 08:08:25;;;;;;;0.53;0.05;;;;;;;23.00;47.95;100962.23;1681793;84;21073;-64
2022/08/09 08:10:51;;;;;;;1.07;0.00;;;;;;;23.05;48.38;100952.78;1677985;84;21507;-66
2022/08/09 08:13:19;;;;;;;0.20;0.20;;;;;;;23.03;47.26;100960.38;1673006;84;21469;-68
2022/08/09 08:15:45;;;;;;;0.65;0.10;;;;;;;22.94;48.85;100958.64;1675638;84;21672;-69
2022/08/09 08:18:11;;;;;;;0.23;0.05;;;;;;;22.80;47.51;100970.17;1668656;84;21410;-70
2022/08/09 08:20:38;;;;;;;0.30;0.10;;;;;;;22.58;49.11;100966.10;1667704;84;21056;-70
2022/08/09 08:23:05;;;;;;;1.25;0.10;;;;;;;22.45;49.85;100971.37;1675072;84;21049;-69
2022/08/09 08:25:33;;;;;;;1.10;0.10;;;;;;;22.44;50.04;100973.81;1675808;84;21482;-68
2022/08/09 08:27:59;;;;;;;0.42;0.10;;;;;;;22.53;50.54;100966.33;1648979;85;21023;-72
2022/08/09 08:30:25;;;;;;;0.78;0.20;;;;;;;22.56;51.06;100977.22;1647087;86;21188;-70
2022/08/09 08:32:52;;;;;;;0.10;0.10;;;;;;;22.58;51.65;100972.89;1677530;84;21109;-70
2022/08/09 08:35:20;;;;;;;1.02;0.10;;;;;;;22.50;50.93;100979.59;1633673;86;21009;-68
2022/08/09 08:37:46;;;;;;;2.42;0.23;;;;;;;22.42;51.96;100978.14;1646732;85;21097;-72
2022/08/09 08:40:13;;;;;;;1.20;0.00;;;;;;;22.41;51.44;100978.38;1645144;86;21025;-70
2022/08/09 08:42:42;;;;;;;1.45;0.10;;;;;;;22.40;51.30;100979.47;1637057;86;21067;-69
2022/08/09 08:45:11;;;;;;;0.42;0.10;;;;;;;22.43;51.80;100981.12;1661632;84;21079;-68
2022/08/09 08:47:40;;;;;;;1.22;0.10;;;;;;;22.47;51.96;100975.49;1665337;84;21565;-71
2022/08/09 08:50:07;;;;;;;0.45;0.10;;;;;;;22.53;51.53;100967.69;1682787;84;21087;-70
2022/08/09 08:52:34;;;;;;;0.10;0.00;;;;;;;22.60;50.27;100970.74;1691595;84;22290;-66
2022/08/09 08:55:01;;;;;;;0.20;0.03;;;;;;;22.57;48.47;100967.19;1683513;84;21072;-68
2022/08/09 08:57:27;;;;;;;0.28;0.10;;;;;;;22.59;49.33;100969.12;1648701;86;21505;-68
2022/08/09 08:59:54;;;;;;;0.05;0.05;;;;;;;22.63;49.53;100965.63;1647962;86;21030;-69
2022/08/09 09:02:28;;;;;;;0.47;0.10;;;;;;;22.68;50.24;100967.05;1698030;83;20997;-68
2022/08/09 09:04:59;;;;;;;0.75;0.10;;;;;;;22.72;49.80;100962.75;1682548;84;20940;-69
2022/08/09 09:07:29;;;;;;;0.70;0.10;;;;;;;22.73;50.19;100960.33;1713720;83;20990;-69
2022/08/09 09:09:57;;;;;;;0.45;0.10;;;;;;;22.75;50.51;100957.33;1684547;84;21154;-68
2022/08/09 09:12:28;;;;;;;2.75;0.10;;;;;;;22.79;50.80;100959.00;1665192;83;21009;-69
2022/08/09 09:14:58;;;;;;;2.08;0.10;;;;;;;22.78;51.24;100960.09;1645393;86;21061;-67
2022/08/09 09:17:25;;;;;;;3.02;0.10;;;;;;;22.80;51.75;100952.51;1643888;86;21024;-68
2022/08/09 09:19:52;;;;;;;0.20;0.10;;;;;;;22.86;51.97;100952.84;1645389;86;21163;-70
2022/08/09 09:22:20;;;;;;;0.62;0.10;;;;;;;22.89;51.75;100946.90;1643524;85;21009;-66
2022/08/09 09:24:53;;;;;;;1.92;0.10;;;;;;;22.86;51.25;100936.53;1634000;86;21161;-66
2022/08/09 09:29:06;;;;;;;0.68;0.10;;;;;;;22.88;50.49;100946.05;1804547;77;22926;-67
2022/08/09 09:31:32;;;;;;;0.40;0.10;;;;;;;22.74;50.85;100942.92;1773306;80;21422;-69
2022/08/09 09:34:14;;;;;;;2.10;0.10;;;;;;;22.69;51.14;100948.84;1760374;78;21024;-68
2022/08/09 09:36:41;;;;;;;2.10;0.10;;;;;;;22.67;51.42;100943.66;1728004;82;21073;-67
2022/08/09 09:39:09;;;;;;;0.88;0.88;;;;;;;22.66;52.05;100942.55;1729371;83;21013;-69
2022/08/09 09:41:36;;;;;;;0.40;0.10;;;;;;;22.69;52.80;100943.41;1729927;82;21085;-70
2022/08/09 09:44:06;;;;;;;0.85;0.20;;;;;;;22.79;52.86;100942.70;1729113;82;21505;-68
2022/08/09 09:46:38;;;;;;;0.47;0.10;;;;;;;22.87;51.97;100949.05;1731260;82;21015;-68
2022/08/09 09:49:08;;;;;;;0.55;0.20;;;;;;;22.90;51.19;100944.45;1730648;82;21376;-71
2022/08/09 09:51:38;;;;;;;0.75;0.10;;;;;;;22.94;50.71;100945.57;1731649;82;21026;-69
2022/08/09 09:54:12;;;;;;;0.10;0.10;;;;;;;22.99;50.69;100942.91;1733466;82;21054;-75
2022/08/09 09:56:42;;;;;;;2.37;0.20;;;;;;;23.06;50.72;100938.13;1711889;82;22186;-75
2022/08/09 09:59:11;;;;;;;0.62;0.10;;;;;;;23.09;50.34;100944.42;1700582;84;21009;-81
2022/08/09 10:01:38;;;;;;;0.30;0.10;;;;;;;23.08;51.05;100941.41;1734542;82;21002;-75
2022/08/09 10:04:14;;;;;;;1.80;0.20;;;;;;;23.09;50.38;100938.14;1754007;81;21009;-74
2022/08/09 10:06:44;;;;;;;0.30;0.30;;;;;;;23.08;51.71;100934.61;1750390;81;21010;-82
2022/08/09 10:09:15;;;;;;;1.65;0.10;;;;;;;23.10;52.56;100930.28;1752226;81;21101;-77
2022/08/09 10:11:44;;;;;;;1.55;0.30;;;;;;;23.17;52.54;100931.41;1709980;82;21046;-83
2022/08/09 10:14:28;;;;;;;0.90;0.10;;;;;;;23.25;52.87;100931.77;1694995;83;21007;-82
2022/08/09 10:16:56;;;;;;;1.42;0.13;;;;;;;23.28;52.80;100934.50;1660499;84;21093;-84
2022/08/09 10:19:34;;;;;;;1.85;1.75;;;;;;;23.22;52.74;100927.39;1683739;83;20974;-83
2022/08/09 10:22:01;;;;;;;1.30;1.10;;;;;;;23.23;53.35;100929.85;1692647;83;21025;-82
2022/08/09 10:24:28;;;;;;;1.40;1.40;;;;;;;23.28;52.74;100926.34;1728621;83;21056;-79
2022/08/09 10:26:56;;;;;;;2.15;2.05;;;;;;;23.29;53.05;100928.81;1698929;84;21113;-90
2022/08/09 10:29:23;;;;;;;0.40;0.20;;;;;;;23.33;53.46;100931.84;1692513;84;21010;-77
2022/08/09 10:31:51;;;;;;;0.60;0.17;;;;;;;23.36;51.92;100930.48;1696374;83;21009;-75
2022/08/09 10:34:18;;;;;;;2.17;0.13;;;;;;;23.30;52.42;100927.75;1704365;84;21029;-78
2022/08/09 10:36:44;;;;;;;2.75;0.30;;;;;;;23.30;52.69;100927.75;1704821;84;20983;-75
2022/08/09 10:39:11;;;;;;;0.98;0.35;;;;;;;23.31;52.07;100926.66;1702648;83;21061;-76
2022/08/09 10:41:37;;;;;;;0.47;0.47;;;;;;;23.34;51.74;100925.33;1681717;84;21563;-77
2022/08/09 10:44:03;;;;;;;3.02;0.33;;;;;;;23.37;52.01;100912.55;1699767;83;21113;-78
2022/08/09 10:47:09;;;;;;;0.85;0.10;;;;;;;23.41;51.50;100916.39;1725542;83;21094;-77
2022/08/09 10:50:06;;;;;;;0.42;0.10;;;;;;;23.42;50.72;100926.20;1729124;82;21124;-70
2022/08/09 10:52:56;;;;;;;3.47;0.30;;;;;;;23.38;50.96;100923.73;1704007;84;21108;-81
2022/08/09 10:55:26;;;;;;;0.13;0.10;;;;;;;23.26;50.11;100921.70;1690973;83;21074;-81
2022/08/09 10:57:54;;;;;;;0.80;0.10;;;;;;;23.18;49.86;100918.92;1665607;84;21025;-72
2022/08/09 11:00:37;;;;;;;0.30;0.10;;;;;;;23.16;49.77;100913.47;1667688;85;21541;-79
2022/08/09 11:03:20;;;;;;;1.62;0.30;;;;;;;23.16;49.91;100916.19;1658283;86;21073;-73
2022/08/09 11:06:18;;;;;;;2.60;0.05;;;;;;;23.15;49.17;100908.58;1678914;84;21018;-73
2022/08/09 11:08:47;;;;;;;0.25;0.10;;;;;;;23.15;48.83;100907.74;1667282;86;21069;-72
2022/08/09 11:11:16;;;;;;;0.72;0.10;;;;;;;23.25;48.66;100910.56;1696695;84;21026;-71
2022/08/09 11:13:43;;;;;;;0.40;0.00;;;;;;;23.32;47.59;100901.66;1696635;84;21053;-77
2022/08/09 11:16:35;;;;;;;0.10;0.10;;;;;;;23.31;47.40;100913.05;1698408;84;21018;-71
2022/08/09 11:19:06;;;;;;;1.47;0.10;;;;;;;23.29;47.51;100914.41;1665971;85;21112;-75
2022/08/09 11:22:00;;;;;;;0.10;0.10;;;;;;;23.25;47.48;100907.84;1688956;84;21074;-78
2022/08/09 11:24:26;;;;;;;0.30;0.10;;;;;;;23.22;47.77;100904.27;1697978;84;21009;-72
2022/08/09 11:26:52;;;;;;;0.10;0.10;;;;;;;23.23;46.69;100904.02;1704407;84;21046;-81
2022/08/09 11:29:56;;;;;;;0.78;0.20;;;;;;;23.22;47.72;100901.00;1690565;84;21593;-77
2022/08/09 11:32:49;;;;;;;0.95;0.23;;;;;;;23.16;49.00;100904.77;1694399;84;21003;-76
2022/08/09 11:35:33;;;;;;;0.10;0.10;;;;;;;23.06;50.00;100894.63;1685605;83;21551;-83
2022/08/09 11:38:28;;;;;;;0.40;0.10;;;;;;;22.98;50.04;100904.59;1744795;81;20964;-79